createdAt,value
2017-11-23T00:01:07.521Z,66.60
2017-11-23T00:03:35.848Z,65.54
2017-11-23T00:06:04.187Z,64.65
2017-11-23T00:08:32.538Z,63.63
2017-11-23T00:11:00.915Z,63.76
2017-11-23T00:13:29.255Z,64.18
2017-11-23T00:15:57.588Z,64.60
2017-11-23T00:18:25.934Z,64.72
2017-11-23T00:20:54.255Z,64.94
2017-11-23T00:23:22.718Z,65.56
2017-11-23T00:25:51.048Z,65.53
2017-11-23T00:28:19.386Z,64.68
2017-11-23T00:30:47.811Z,63.53
2017-11-23T00:33:16.326Z,62.86
2017-11-23T00:35:44.752Z,62.27
2017-11-23T00:38:13.147Z,62.29
2017-11-23T00:40:41.590Z,61.77
2017-11-23T00:43:10.138Z,61.08
2017-11-23T00:45:38.670Z,61.78
2017-11-23T00:48:07.093Z,62.41
2017-11-23T00:50:35.443Z,62.66
2017-11-23T00:53:03.779Z,62.43
2017-11-23T00:55:32.115Z,62.11
2017-11-23T00:58:00.464Z,63.37
2017-11-23T01:00:28.847Z,64.42
2017-11-23T01:02:57.188Z,65.13
2017-11-23T01:05:25.527Z,64.87
2017-11-23T01:07:53.896Z,64.37
2017-11-23T01:10:22.246Z,64.15
2017-11-23T01:12:50.589Z,64.49
2017-11-23T01:15:18.924Z,64.46
2017-11-23T01:17:47.264Z,65.21
2017-11-23T01:20:15.633Z,65.29
2017-11-23T01:22:43.967Z,65.51
2017-11-23T01:25:12.310Z,65.59
2017-11-23T01:27:40.655Z,66.04
2017-11-23T01:30:09.012Z,66.15
2017-11-23T01:32:37.372Z,65.64
2017-11-23T01:35:05.727Z,65.90
2017-11-23T01:37:34.067Z,66.13
2017-11-23T01:40:02.405Z,66.48
2017-11-23T01:42:30.771Z,66.79
2017-11-23T01:44:59.130Z,66.97
2017-11-23T01:50:02.075Z,67.66
2017-11-23T01:52:30.420Z,67.91
2017-11-23T01:54:58.772Z,68.26
2017-11-23T01:57:27.111Z,68.52
2017-11-23T01:59:55.437Z,69.26
2017-11-23T02:02:23.796Z,69.54
2017-11-23T02:04:52.119Z,69.55
2017-11-23T02:07:20.467Z,69.47
2017-11-23T02:09:48.828Z,69.67
2017-11-23T02:12:17.160Z,69.62
2017-11-23T02:14:45.538Z,69.66
2017-11-23T02:17:14.744Z,69.59
2017-11-23T02:19:43.085Z,69.53
2017-11-23T02:22:11.437Z,68.99
2017-11-23T02:24:39.784Z,69.04
2017-11-23T02:27:08.148Z,68.98
2017-11-23T02:29:36.482Z,68.74
2017-11-23T02:32:04.821Z,68.92
2017-11-23T02:34:33.163Z,69.21
2017-11-23T02:37:01.514Z,69.73
2017-11-23T02:39:29.883Z,70.02
2017-11-23T02:41:58.211Z,70.19
2017-11-23T02:44:26.549Z,69.83
2017-11-23T02:46:54.904Z,69.64
2017-11-23T02:49:23.241Z,69.65
2017-11-23T02:51:51.616Z,70.07
2017-11-23T02:54:19.948Z,70.66
2017-11-23T02:56:48.280Z,70.32
2017-11-23T02:59:16.611Z,70.62
2017-11-23T03:01:44.952Z,70.45
2017-11-23T03:04:13.329Z,70.73
2017-11-23T03:06:41.672Z,71.20
2017-11-23T03:09:10.024Z,70.45
2017-11-23T03:11:38.363Z,70.35
2017-11-23T03:14:06.701Z,70.56
2017-11-23T03:16:35.163Z,71.40
2017-11-23T03:19:03.513Z,71.98
2017-11-23T03:21:31.859Z,72.70
2017-11-23T03:24:00.201Z,72.96
2017-11-23T03:26:28.532Z,73.26
2017-11-23T03:28:56.877Z,73.85
2017-11-23T03:31:25.353Z,74.90
2017-11-23T03:33:53.687Z,75.98
2017-11-23T03:36:22.032Z,75.99
2017-11-23T03:38:50.373Z,75.73
2017-11-23T03:41:18.712Z,75.92
2017-11-23T03:43:47.171Z,76.39
2017-11-23T03:46:15.508Z,75.86
2017-11-23T03:48:43.855Z,75.36
2017-11-23T03:51:12.208Z,75.40
2017-11-23T03:53:40.560Z,75.15
2017-11-23T03:56:08.927Z,75.86
2017-11-23T03:58:37.271Z,76.15
2017-11-23T04:01:05.611Z,76.15
2017-11-23T04:03:33.958Z,76.21
2017-11-23T04:06:02.350Z,76.53
2017-11-23T04:08:30.680Z,76.00
2017-11-23T04:10:59.027Z,76.14
2017-11-23T04:13:27.377Z,75.66
2017-11-23T04:15:55.716Z,76.19
2017-11-23T04:18:24.096Z,76.17
2017-11-23T04:20:52.440Z,76.34
2017-11-23T04:23:20.774Z,76.35
2017-11-23T04:25:49.117Z,76.75
2017-11-23T04:28:17.457Z,77.18
2017-11-23T04:30:45.824Z,77.26
2017-11-23T04:33:14.163Z,77.45
2017-11-23T04:35:42.500Z,78.04
2017-11-23T04:38:10.838Z,78.34
2017-11-23T04:40:39.174Z,78.56
2017-11-23T04:43:07.540Z,78.38
2017-11-23T04:45:35.871Z,78.50
2017-11-23T04:48:04.227Z,78.36
2017-11-23T04:50:32.564Z,78.32
2017-11-23T04:53:00.913Z,78.22
2017-11-23T04:55:29.279Z,77.34
2017-11-23T04:57:57.631Z,77.44
2017-11-23T05:00:25.977Z,77.36
2017-11-23T05:02:54.333Z,77.78
2017-11-23T05:05:22.667Z,77.65
2017-11-23T05:07:51.033Z,76.93
2017-11-23T05:10:19.385Z,76.75
2017-11-23T05:12:47.753Z,76.61
2017-11-23T05:15:16.096Z,77.31
2017-11-23T05:17:44.431Z,77.56
2017-11-23T05:20:12.813Z,77.94
2017-11-23T05:22:41.152Z,78.29
2017-11-23T05:25:09.491Z,78.57
2017-11-23T05:27:37.833Z,78.85
2017-11-23T05:30:06.164Z,79.67
2017-11-23T05:32:34.526Z,80.35
2017-11-23T05:35:02.868Z,80.49
2017-11-23T05:37:31.216Z,81.10
2017-11-23T05:39:59.555Z,81.92
2017-11-23T05:42:27.891Z,82.54
2017-11-23T05:44:56.255Z,83.44
2017-11-23T05:47:24.620Z,83.45
2017-11-23T05:49:52.959Z,83.67
2017-11-23T05:52:21.308Z,83.68
2017-11-23T05:54:49.653Z,83.30
2017-11-23T05:57:18.020Z,82.46
2017-11-23T05:59:46.362Z,82.04
2017-11-23T06:02:14.715Z,83.23
2017-11-23T06:04:43.047Z,84.62
2017-11-23T06:07:11.389Z,84.31
2017-11-23T06:09:39.768Z,84.49
2017-11-23T06:12:08.109Z,83.98
2017-11-23T06:14:36.559Z,85.60
2017-11-23T06:17:04.916Z,85.75
2017-11-23T06:19:33.267Z,86.31
2017-11-23T06:22:01.656Z,85.18
2017-11-23T06:24:30.089Z,85.48
2017-11-23T06:26:58.421Z,86.49
2017-11-23T06:29:26.764Z,85.32
2017-11-23T06:31:55.095Z,85.72
2017-11-23T06:34:23.561Z,85.79
2017-11-23T06:36:51.973Z,85.73
2017-11-23T06:39:20.315Z,85.24
2017-11-23T06:41:49.468Z,84.85
2017-11-23T06:44:17.944Z,85.66
2017-11-23T06:46:46.431Z,84.91
2017-11-23T06:49:14.827Z,85.06
2017-11-23T06:51:43.199Z,84.90
2017-11-23T06:54:11.544Z,85.20
2017-11-23T06:56:39.902Z,83.97
2017-11-23T06:59:08.285Z,83.34
2017-11-23T07:01:36.636Z,82.64
2017-11-23T07:04:04.979Z,83.90
2017-11-23T07:06:33.318Z,83.65
2017-11-23T07:09:01.663Z,83.16
2017-11-23T07:11:30.086Z,82.80
2017-11-23T07:13:58.440Z,84.15
2017-11-23T07:16:26.781Z,83.18
2017-11-23T07:18:55.136Z,83.58
2017-11-23T07:21:23.474Z,81.99
2017-11-23T07:23:51.838Z,82.31
2017-11-23T07:26:20.176Z,82.25
2017-11-23T07:28:52.460Z,82.36
2017-11-23T07:31:20.805Z,83.68
2017-11-23T07:33:49.154Z,84.04
2017-11-23T07:36:17.502Z,84.03
2017-11-23T07:38:45.870Z,83.51
2017-11-23T07:41:14.254Z,83.79
2017-11-23T07:43:42.604Z,83.65
2017-11-23T07:46:10.940Z,84.16
2017-11-23T07:48:39.316Z,85.18
2017-11-23T07:51:07.658Z,84.80
2017-11-23T07:53:36.004Z,84.51
2017-11-23T07:56:04.341Z,83.56
2017-11-23T07:58:32.712Z,82.23
2017-11-23T08:01:01.184Z,81.50
2017-11-23T08:03:29.525Z,81.65
2017-11-23T08:05:57.860Z,82.13
2017-11-23T08:08:26.191Z,81.39
2017-11-23T08:10:54.532Z,80.54
2017-11-23T08:13:22.901Z,79.68
2017-11-23T08:15:51.248Z,79.04
2017-11-23T08:18:19.589Z,79.17
2017-11-23T08:20:47.923Z,78.98
2017-11-23T08:23:16.273Z,78.61
2017-11-23T08:25:44.650Z,78.50
2017-11-23T08:28:12.996Z,77.70
2017-11-23T08:30:41.335Z,78.09
2017-11-23T08:33:09.692Z,77.87
2017-11-23T08:35:38.040Z,77.27
2017-11-23T08:38:06.511Z,76.69
2017-11-23T08:40:34.851Z,76.62
2017-11-23T08:43:03.193Z,75.20
2017-11-23T08:45:31.542Z,75.85
2017-11-23T08:47:59.912Z,75.89
2017-11-23T08:50:28.288Z,75.70
2017-11-23T08:52:57.524Z,76.03
2017-11-23T08:55:26.773Z,76.03
2017-11-23T08:57:55.120Z,76.20
2017-11-23T09:00:23.461Z,75.94
2017-11-23T09:02:51.836Z,75.38
2017-11-23T09:05:20.180Z,75.64
2017-11-23T09:07:48.520Z,76.09
2017-11-23T09:10:16.865Z,76.15
2017-11-23T09:12:45.209Z,75.78
2017-11-23T09:15:13.579Z,75.50
2017-11-23T09:17:41.932Z,75.01
2017-11-23T09:20:10.270Z,74.63
2017-11-23T09:22:38.617Z,74.57
2017-11-23T09:25:06.953Z,75.48
2017-11-23T09:27:35.794Z,74.42
2017-11-23T09:30:04.147Z,70.66
2017-11-23T09:32:32.482Z,68.08
2017-11-23T09:35:00.828Z,69.25
2017-11-23T09:37:29.165Z,67.04
2017-11-23T09:39:57.546Z,64.66
2017-11-23T09:42:25.879Z,63.14
2017-11-23T09:44:54.220Z,62.08
2017-11-23T09:47:22.575Z,62.63
2017-11-23T09:49:50.916Z,63.22
2017-11-23T09:52:19.384Z,63.68
2017-11-23T09:54:47.715Z,64.12
2017-11-23T09:57:16.060Z,64.24
2017-11-23T09:59:44.407Z,62.81
2017-11-23T10:02:12.736Z,62.27
2017-11-23T10:04:41.115Z,60.39
2017-11-23T10:07:09.468Z,61.33
2017-11-23T10:09:37.812Z,59.97
2017-11-23T10:12:06.160Z,60.46
2017-11-23T10:14:40.105Z,61.76
2017-11-23T10:17:08.443Z,62.78
2017-11-23T10:19:36.783Z,62.12
2017-11-23T10:22:05.121Z,60.87
2017-11-23T10:24:33.472Z,59.58
2017-11-23T10:27:01.812Z,58.92
2017-11-23T10:29:30.148Z,60.24
2017-11-23T10:31:58.596Z,60.57
2017-11-23T10:34:26.940Z,60.49
2017-11-23T10:36:55.279Z,61.62
2017-11-23T10:39:23.679Z,63.39
2017-11-23T10:41:52.044Z,64.50
2017-11-23T10:44:20.415Z,67.24
2017-11-23T10:46:48.784Z,66.12
2017-11-23T10:49:17.130Z,67.15
2017-11-23T10:51:45.470Z,67.27
2017-11-23T10:54:13.852Z,67.13
2017-11-23T10:56:42.206Z,67.21
2017-11-23T10:59:10.545Z,67.41
2017-11-23T11:01:38.917Z,69.11
2017-11-23T11:04:07.253Z,68.70
2017-11-23T11:06:35.594Z,69.65
2017-11-23T11:09:03.934Z,68.75
2017-11-23T11:11:32.283Z,69.84
2017-11-23T11:14:00.664Z,69.60
2017-11-23T11:16:29.013Z,70.65
2017-11-23T11:18:57.354Z,71.03
2017-11-23T11:21:25.696Z,71.32
2017-11-23T11:23:54.065Z,72.74
2017-11-23T11:26:22.531Z,73.26
2017-11-23T11:28:50.874Z,73.92
2017-11-23T11:31:19.215Z,73.77
2017-11-23T11:33:47.572Z,74.18
2017-11-23T11:36:15.909Z,74.51
2017-11-23T11:38:44.278Z,74.75
2017-11-23T11:41:12.628Z,76.37
2017-11-23T11:43:40.967Z,78.06
2017-11-23T11:46:09.307Z,78.09
2017-11-23T11:48:37.646Z,78.23
2017-11-23T11:51:06.050Z,78.17
2017-11-23T11:53:34.389Z,79.11
2017-11-23T11:56:02.732Z,79.06
2017-11-23T11:58:31.074Z,80.34
2017-11-23T12:00:59.424Z,81.35
2017-11-23T12:03:27.801Z,81.98
2017-11-23T12:05:56.151Z,81.61
2017-11-23T12:08:24.552Z,82.44
2017-11-23T12:10:52.892Z,83.17
2017-11-23T12:13:21.345Z,84.75
2017-11-23T12:16:01.232Z,85.20
2017-11-23T12:21:42.107Z,85.44
2017-11-23T12:24:12.272Z,85.23
2017-11-23T12:29:34.027Z,82.07
2017-11-23T12:32:02.377Z,82.42
2017-11-23T12:34:30.810Z,83.44
2017-11-23T12:36:59.152Z,83.78
2017-11-23T12:39:36.104Z,84.69
2017-11-23T12:42:04.439Z,84.44
2017-11-23T12:44:32.780Z,84.96
2017-11-23T12:47:01.133Z,85.91
2017-11-23T12:49:29.476Z,85.42
2017-11-23T12:51:57.849Z,85.84
2017-11-23T12:54:26.205Z,86.83
2017-11-23T12:56:54.552Z,86.89
2017-11-23T12:59:22.892Z,87.70
2017-11-23T13:01:51.241Z,87.12
2017-11-23T13:04:19.617Z,86.79
2017-11-23T13:06:47.961Z,86.47
2017-11-23T13:09:16.298Z,85.48
2017-11-23T13:11:44.640Z,84.72
2017-11-23T13:14:12.983Z,85.39
2017-11-23T13:16:41.353Z,84.76
2017-11-23T13:19:09.693Z,84.64
2017-11-23T13:21:38.050Z,85.05
2017-11-23T13:24:06.395Z,83.34
2017-11-23T13:26:34.735Z,83.73
2017-11-23T13:29:03.119Z,85.54
2017-11-23T13:31:31.464Z,86.70
2017-11-23T13:33:59.815Z,88.71
2017-11-23T13:36:28.179Z,89.58
2017-11-23T13:38:56.515Z,88.67
2017-11-23T13:41:24.901Z,89.09
2017-11-23T13:43:53.246Z,89.60
2017-11-23T13:46:21.588Z,89.70
2017-11-23T13:48:49.932Z,89.15
2017-11-23T13:51:18.274Z,89.39
2017-11-23T13:53:46.640Z,89.86
2017-11-23T13:56:14.976Z,90.22
2017-11-23T13:58:43.314Z,89.76
2017-11-23T14:01:11.667Z,89.13
2017-11-23T14:03:40.008Z,88.45
2017-11-23T14:06:08.404Z,88.57
2017-11-23T14:08:36.746Z,88.12
2017-11-23T14:11:05.084Z,87.58
2017-11-23T14:13:33.427Z,88.43
2017-11-23T14:16:01.765Z,88.04
2017-11-23T14:18:30.238Z,87.31
2017-11-23T14:20:58.579Z,86.71
2017-11-23T14:23:26.927Z,85.80
2017-11-23T14:25:55.267Z,85.60
2017-11-23T14:28:23.604Z,85.07
2017-11-23T14:30:51.976Z,83.55
2017-11-23T14:33:20.330Z,83.56
2017-11-23T14:35:48.677Z,82.55
2017-11-23T14:38:17.029Z,83.68
2017-11-23T14:40:46.286Z,83.54
2017-11-23T14:43:14.660Z,82.89
2017-11-23T14:45:43.018Z,81.74
2017-11-23T14:48:11.373Z,82.40
2017-11-23T14:50:39.708Z,81.80
2017-11-23T14:53:08.073Z,81.55
2017-11-23T14:55:36.461Z,82.01
2017-11-23T14:58:04.798Z,81.75
2017-11-23T15:00:33.131Z,81.88
2017-11-23T15:03:01.473Z,81.84
2017-11-23T15:05:29.839Z,81.72
2017-11-23T15:07:58.230Z,81.42
2017-11-23T15:10:26.579Z,80.98
2017-11-23T15:12:54.925Z,82.04
2017-11-23T15:15:23.263Z,82.16
2017-11-23T15:17:51.620Z,82.22
2017-11-23T15:20:19.994Z,81.53
2017-11-23T15:22:48.335Z,81.38
2017-11-23T15:25:16.681Z,83.12
2017-11-23T15:27:45.024Z,82.90
2017-11-23T15:30:13.364Z,84.15
2017-11-23T15:32:41.822Z,85.78
2017-11-23T15:35:10.175Z,86.73
2017-11-23T15:37:38.526Z,86.79
2017-11-23T15:40:06.868Z,86.86
2017-11-23T15:42:35.227Z,86.49
2017-11-23T15:45:03.634Z,86.56
2017-11-23T15:47:31.983Z,86.80
2017-11-23T15:50:00.325Z,86.29
2017-11-23T15:52:28.663Z,85.01
2017-11-23T15:54:56.998Z,86.54
2017-11-23T15:57:25.369Z,87.25
2017-11-23T15:59:53.719Z,85.82
2017-11-23T16:02:22.057Z,85.00
2017-11-23T16:04:50.409Z,85.41
2017-11-23T16:07:18.739Z,85.12
2017-11-23T16:09:47.146Z,85.12
2017-11-23T16:12:15.635Z,85.21
2017-11-23T16:14:44.069Z,85.66
2017-11-23T16:17:12.449Z,85.25
2017-11-23T16:19:40.795Z,86.40
2017-11-23T16:22:09.152Z,85.91
2017-11-23T16:24:37.500Z,85.79
2017-11-23T16:27:05.980Z,85.05
2017-11-23T16:29:35.760Z,84.86
2017-11-23T16:32:04.885Z,84.68
2017-11-23T16:34:33.230Z,84.36
2017-11-23T16:37:03.331Z,83.68
2017-11-23T16:39:36.132Z,83.28
2017-11-23T16:42:09.964Z,83.62
2017-11-23T16:44:59.220Z,82.90
2017-11-23T16:50:52.227Z,83.65
2017-11-23T16:53:27.173Z,83.65
2017-11-23T16:56:01.186Z,83.21
2017-11-23T17:01:36.161Z,83.03
2017-11-23T17:04:05.339Z,83.36
2017-11-23T17:06:39.238Z,83.62
2017-11-23T17:09:07.868Z,85.20
2017-11-23T17:11:41.721Z,85.66
2017-11-23T17:14:15.660Z,86.74
2017-11-23T17:16:49.680Z,88.03
2017-11-23T17:19:18.513Z,86.23
2017-11-23T17:21:46.858Z,86.91
2017-11-23T17:24:15.192Z,86.69
2017-11-23T17:26:43.528Z,85.17
2017-11-23T17:29:11.906Z,86.24
2017-11-23T17:31:41.184Z,86.16
2017-11-23T17:34:09.512Z,85.28
2017-11-23T17:36:37.849Z,84.18
2017-11-23T17:39:06.204Z,84.86
2017-11-23T17:41:34.587Z,84.10
2017-11-23T17:44:02.929Z,83.72
2017-11-23T17:46:31.268Z,82.31
2017-11-23T17:48:59.606Z,82.30
2017-11-23T17:51:27.951Z,82.38
2017-11-23T17:53:56.320Z,82.55
2017-11-23T17:56:24.657Z,81.47
2017-11-23T17:58:52.991Z,80.42
2017-11-23T18:01:21.349Z,80.59
2017-11-23T18:03:49.707Z,80.71
2017-11-23T18:06:18.070Z,80.78
2017-11-23T18:08:46.403Z,80.28
2017-11-23T18:11:14.744Z,81.21
2017-11-23T18:13:43.090Z,81.21
2017-11-23T18:16:11.425Z,80.45
2017-11-23T18:18:39.762Z,79.78
2017-11-23T18:21:08.102Z,79.70
2017-11-23T18:23:36.482Z,79.00
2017-11-23T18:26:05.189Z,78.64
2017-11-23T18:28:33.572Z,77.96
2017-11-23T18:31:01.909Z,78.87
2017-11-23T18:33:30.248Z,80.07
2017-11-23T18:35:58.656Z,81.05
2017-11-23T18:38:27.035Z,80.10
2017-11-23T18:40:55.417Z,80.45
2017-11-23T18:43:23.782Z,79.42
2017-11-23T18:45:52.143Z,79.71
2017-11-23T18:48:20.519Z,81.31
2017-11-23T18:50:49.759Z,80.51
2017-11-23T18:53:18.097Z,80.55
2017-11-23T18:55:46.447Z,79.51
2017-11-23T18:58:14.791Z,80.74
2017-11-23T19:00:43.312Z,80.43
2017-11-23T19:03:11.661Z,80.48
2017-11-23T19:05:40.018Z,80.99
2017-11-23T19:08:08.347Z,80.44
2017-11-23T19:10:36.697Z,79.77
2017-11-23T19:13:05.086Z,80.18
2017-11-23T19:15:33.449Z,80.61
2017-11-23T19:18:01.781Z,81.79
2017-11-23T19:20:30.130Z,81.55
2017-11-23T19:22:58.479Z,82.16
2017-11-23T19:25:26.872Z,81.56
2017-11-23T19:27:55.220Z,85.01
2017-11-23T19:30:23.568Z,86.79
2017-11-23T19:32:51.909Z,87.17
2017-11-23T19:35:20.253Z,86.59
2017-11-23T19:37:48.719Z,88.57
2017-11-23T19:40:17.069Z,87.53
2017-11-23T19:42:45.400Z,87.52
2017-11-23T19:45:13.799Z,89.58
2017-11-23T19:47:42.157Z,88.99
2017-11-23T19:50:10.489Z,89.41
2017-11-23T19:52:38.834Z,89.07
2017-11-23T19:55:07.208Z,90.18
2017-11-23T19:57:35.561Z,90.56
2017-11-23T20:00:03.891Z,91.70
2017-11-23T20:02:32.250Z,92.44
2017-11-23T20:05:00.598Z,93.73
2017-11-23T20:07:28.932Z,93.54
2017-11-23T20:09:57.282Z,94.41
2017-11-23T20:12:25.628Z,95.55
2017-11-23T20:14:53.968Z,96.32
2017-11-23T20:17:22.324Z,94.62
2017-11-23T20:20:10.280Z,95.45
2017-11-23T20:22:38.783Z,95.29
2017-11-23T20:25:07.132Z,96.91
2017-11-23T20:27:35.815Z,98.01
2017-11-23T20:30:04.209Z,98.66
2017-11-23T20:32:32.556Z,98.85
2017-11-23T20:35:00.911Z,99.17
2017-11-23T20:37:29.390Z,98.81
2017-11-23T20:39:57.752Z,98.92
2017-11-23T20:42:26.097Z,99.54
2017-11-23T20:44:54.542Z,99.87
2017-11-23T20:47:22.889Z,99.53
2017-11-23T20:49:51.228Z,99.31
2017-11-23T20:52:19.605Z,99.70
2017-11-23T20:54:47.946Z,99.98
2017-11-23T20:57:16.284Z,98.72
2017-11-23T20:59:44.632Z,97.11
2017-11-23T21:02:12.977Z,98.92
2017-11-23T21:04:41.421Z,97.74
2017-11-23T21:07:09.761Z,97.93
2017-11-23T21:09:38.103Z,97.73
2017-11-23T21:12:06.493Z,98.20
2017-11-23T21:14:34.840Z,98.45
2017-11-23T21:17:03.188Z,97.99
2017-11-23T21:19:31.530Z,98.58
2017-11-23T21:21:59.868Z,98.80
2017-11-23T21:24:28.237Z,98.16
2017-11-23T21:26:56.589Z,98.09
2017-11-23T21:29:24.957Z,98.34
2017-11-23T21:31:53.305Z,99.30
2017-11-23T21:34:21.645Z,98.74
2017-11-23T21:36:50.111Z,98.49
2017-11-23T21:39:18.541Z,98.41
2017-11-23T21:41:46.910Z,97.72
2017-11-23T21:44:15.259Z,98.77
2017-11-23T21:46:43.601Z,98.55
2017-11-23T21:49:11.976Z,97.77
2017-11-23T21:51:40.348Z,96.91
2017-11-23T21:54:08.688Z,96.24
2017-11-23T21:56:37.047Z,96.79
2017-11-23T21:59:05.400Z,95.71
2017-11-23T22:01:33.776Z,94.93
2017-11-23T22:04:02.125Z,93.80
2017-11-23T22:06:30.475Z,95.12
2017-11-23T22:08:58.813Z,95.57
2017-11-23T22:11:27.275Z,94.46
2017-11-23T22:13:55.704Z,95.36
2017-11-23T22:16:24.085Z,95.01
2017-11-23T22:18:52.456Z,95.01
2017-11-23T22:21:20.804Z,94.05
2017-11-23T22:23:49.164Z,94.05
2017-11-23T22:26:17.519Z,93.92
2017-11-23T22:28:45.866Z,93.35
2017-11-23T22:31:14.243Z,93.72
2017-11-23T22:33:42.588Z,93.53
2017-11-23T22:36:10.943Z,93.42
2017-11-23T22:38:39.290Z,92.76
2017-11-23T22:41:07.658Z,92.53
2017-11-23T22:43:36.145Z,93.11
2017-11-23T22:46:04.487Z,93.38
2017-11-23T22:48:32.885Z,92.59
2017-11-23T22:51:01.232Z,91.39
2017-11-23T22:53:29.585Z,91.29
2017-11-23T22:55:57.967Z,91.59
2017-11-23T22:58:26.323Z,91.24
2017-11-23T23:00:54.673Z,91.27
2017-11-23T23:03:23.024Z,89.99
2017-11-23T23:05:51.387Z,88.83
2017-11-23T23:08:19.761Z,89.25
2017-11-23T23:10:49.270Z,89.63
2017-11-23T23:13:17.792Z,88.51
2017-11-23T23:15:46.419Z,87.65
2017-11-23T23:18:14.766Z,87.99
2017-11-23T23:20:43.161Z,87.82
2017-11-23T23:23:11.490Z,89.19
2017-11-23T23:25:39.843Z,87.68
2017-11-23T23:28:08.195Z,88.00
2017-11-23T23:30:36.540Z,88.40
2017-11-23T23:33:04.919Z,87.24
2017-11-23T23:35:33.277Z,87.68
2017-11-23T23:38:01.652Z,87.19
2017-11-23T23:40:30.004Z,85.66
2017-11-23T23:42:58.351Z,85.15
2017-11-23T23:45:26.700Z,84.65
2017-11-23T23:47:55.048Z,83.76
2017-11-23T23:50:23.429Z,83.40
2017-11-23T23:52:51.780Z,84.71
2017-11-23T23:55:20.119Z,84.61
2017-11-23T23:57:48.470Z,84.42
